sensor_id;sensor_type;location;lat;lon;timestamp;temperature;humidity
7762;DHT22;3925;48.636;9.516;2022-10-03T00:02:55;12.90;99.90
7762;DHT22;3925;48.636;9.516;2022-10-03T00:05:38;12.90;99.90
7762;DHT22;3925;48.636;9.516;2022-10-03T00:08:16;12.90;99.90
7762;DHT22;3925;48.636;9.516;2022-10-03T00:10:52;12.90;99.90
7762;DHT22;3925;48.636;9.516;2022-10-03T00:13:26;12.90;99.90
7762;DHT22;3925;48.636;9.516;2022-10-03T00:16:04;12.90;99.90
7762;DHT22;3925;48.636;9.516;2022-10-03T00:18:42;12.80;99.90
7762;DHT22;3925;48.636;9.516;2022-10-03T00:21:31;12.90;99.90
7762;DHT22;3925;48.636;9.516;2022-10-03T00:24:09;12.90;99.90
7762;DHT22;3925;48.636;9.516;2022-10-03T00:26:47;12.90;99.90
7762;DHT22;3925;48.636;9.516;2022-10-03T00:32:15;12.80;99.90
7762;DHT22;3925;48.636;9.516;2022-10-03T00:35:04;12.80;99.90
7762;DHT22;3925;48.636;9.516;2022-10-03T00:37:36;12.70;99.90
7762;DHT22;3925;48.636;9.516;2022-10-03T00:40:34;12.70;99.90
7762;DHT22;3925;48.636;9.516;2022-10-03T00:43:44;12.70;99.90
7762;DHT22;3925;48.636;9.516;2022-10-03T00:49:51;12.80;99.90
7762;DHT22;3925;48.636;9.516;2022-10-03T00:55:20;12.80;99.90
7762;DHT22;3925;48.636;9.516;2022-10-03T00:58:21;12.70;99.90
7762;DHT22;3925;48.636;9.516;2022-10-03T01:00:56;12.70;99.90
7762;DHT22;3925;48.636;9.516;2022-10-03T01:03:39;12.80;99.90
7762;DHT22;3925;48.636;9.516;2022-10-03T01:06:19;12.80;99.90
7762;DHT22;3925;48.636;9.516;2022-10-03T01:12:00;12.80;99.90
7762;DHT22;3925;48.636;9.516;2022-10-03T01:14:47;12.80;99.90
7762;DHT22;3925;48.636;9.516;2022-10-03T01:17:22;12.80;99.90
7762;DHT22;3925;48.636;9.516;2022-10-03T01:20:12;12.70;99.90
7762;DHT22;3925;48.636;9.516;2022-10-03T01:23:11;12.80;99.90
7762;DHT22;3925;48.636;9.516;2022-10-03T01:25:45;12.80;99.90
7762;DHT22;3925;48.636;9.516;2022-10-03T01:28:28;12.80;99.90
7762;DHT22;3925;48.636;9.516;2022-10-03T01:31:18;12.70;99.90
7762;DHT22;3925;48.636;9.516;2022-10-03T01:33:53;12.70;99.90
7762;DHT22;3925;48.636;9.516;2022-10-03T01:36:27;12.80;99.90
7762;DHT22;3925;48.636;9.516;2022-10-03T01:39:01;12.80;99.90
7762;DHT22;3925;48.636;9.516;2022-10-03T01:41:40;12.80;99.90
7762;DHT22;3925;48.636;9.516;2022-10-03T01:44:17;12.80;99.90
7762;DHT22;3925;48.636;9.516;2022-10-03T01:46:50;12.80;99.90
7762;DHT22;3925;48.636;9.516;2022-10-03T01:49:23;12.80;99.90
7762;DHT22;3925;48.636;9.516;2022-10-03T01:51:58;12.80;99.90
7762;DHT22;3925;48.636;9.516;2022-10-03T01:54:32;12.80;99.90
7762;DHT22;3925;48.636;9.516;2022-10-03T01:57:12;12.70;99.90
7762;DHT22;3925;48.636;9.516;2022-10-03T01:59:45;12.70;99.90
7762;DHT22;3925;48.636;9.516;2022-10-03T02:02:24;12.70;99.90
7762;DHT22;3925;48.636;9.516;2022-10-03T02:05:01;12.70;99.90
7762;DHT22;3925;48.636;9.516;2022-10-03T02:07:37;12.60;99.90
7762;DHT22;3925;48.636;9.516;2022-10-03T02:10:16;12.60;99.90
7762;DHT22;3925;48.636;9.516;2022-10-03T02:12:52;12.60;99.90
7762;DHT22;3925;48.636;9.516;2022-10-03T02:15:26;12.60;99.90
7762;DHT22;3925;48.636;9.516;2022-10-03T02:17:57;12.60;99.90
7762;DHT22;3925;48.636;9.516;2022-10-03T02:20:30;12.60;99.90
7762;DHT22;3925;48.636;9.516;2022-10-03T02:23:00;12.60;99.90
7762;DHT22;3925;48.636;9.516;2022-10-03T02:25:40;12.60;99.90
7762;DHT22;3925;48.636;9.516;2022-10-03T02:28:37;12.60;99.90
7762;DHT22;3925;48.636;9.516;2022-10-03T02:31:45;12.60;99.90
7762;DHT22;3925;48.636;9.516;2022-10-03T02:34:32;12.50;99.90
7762;DHT22;3925;48.636;9.516;2022-10-03T02:37:30;12.50;99.90
7762;DHT22;3925;48.636;9.516;2022-10-03T02:43:38;12.40;99.90
7762;DHT22;3925;48.636;9.516;2022-10-03T02:46:46;12.40;99.90
7762;DHT22;3925;48.636;9.516;2022-10-03T02:49:42;12.40;99.90
7762;DHT22;3925;48.636;9.516;2022-10-03T02:52:55;12.40;99.90
7762;DHT22;3925;48.636;9.516;2022-10-03T02:59:01;12.40;99.90
7762;DHT22;3925;48.636;9.516;2022-10-03T03:02:05;12.50;99.90
7762;DHT22;3925;48.636;9.516;2022-10-03T03:08:17;12.50;99.90
7762;DHT22;3925;48.636;9.516;2022-10-03T03:11:03;12.50;99.90
7762;DHT22;3925;48.636;9.516;2022-10-03T03:16:44;12.50;99.90
7762;DHT22;3925;48.636;9.516;2022-10-03T03:19:30;12.50;99.90
7762;DHT22;3925;48.636;9.516;2022-10-03T03:22:08;12.50;99.90
7762;DHT22;3925;48.636;9.516;2022-10-03T03:24:53;12.50;99.90
7762;DHT22;3925;48.636;9.516;2022-10-03T03:27:34;12.50;99.90
7762;DHT22;3925;48.636;9.516;2022-10-03T03:30:08;12.50;99.90
7762;DHT22;3925;48.636;9.516;2022-10-03T03:32:43;12.60;99.90
7762;DHT22;3925;48.636;9.516;2022-10-03T03:35:26;12.70;99.90
7762;DHT22;3925;48.636;9.516;2022-10-03T03:38:04;12.60;99.90
7762;DHT22;3925;48.636;9.516;2022-10-03T03:40:50;12.60;99.90
7762;DHT22;3925;48.636;9.516;2022-10-03T03:43:41;12.60;99.90
7762;DHT22;3925;48.636;9.516;2022-10-03T03:46:23;12.50;99.90
7762;DHT22;3925;48.636;9.516;2022-10-03T03:49:01;12.40;99.90
7762;DHT22;3925;48.636;9.516;2022-10-03T03:51:40;12.40;99.90
7762;DHT22;3925;48.636;9.516;2022-10-03T03:54:30;12.40;99.90
7762;DHT22;3925;48.636;9.516;2022-10-03T03:57:11;12.40;99.90
7762;DHT22;3925;48.636;9.516;2022-10-03T03:59:59;12.50;99.90
7762;DHT22;3925;48.636;9.516;2022-10-03T04:02:41;12.60;99.90
7762;DHT22;3925;48.636;9.516;2022-10-03T04:05:21;12.70;99.90
7762;DHT22;3925;48.636;9.516;2022-10-03T04:10:56;12.60;99.90
7762;DHT22;3925;48.636;9.516;2022-10-03T04:13:40;12.60;99.90
7762;DHT22;3925;48.636;9.516;2022-10-03T04:16:36;12.60;99.90
7762;DHT22;3925;48.636;9.516;2022-10-03T04:19:31;12.60;99.90
7762;DHT22;3925;48.636;9.516;2022-10-03T04:22:20;12.60;99.90
7762;DHT22;3925;48.636;9.516;2022-10-03T04:25:12;12.60;99.90
7762;DHT22;3925;48.636;9.516;2022-10-03T04:28:14;12.60;99.90
7762;DHT22;3925;48.636;9.516;2022-10-03T04:30:53;12.60;99.90
7762;DHT22;3925;48.636;9.516;2022-10-03T04:33:33;12.60;99.90
7762;DHT22;3925;48.636;9.516;2022-10-03T04:36:21;12.50;99.90
7762;DHT22;3925;48.636;9.516;2022-10-03T04:38:59;12.40;99.90
7762;DHT22;3925;48.636;9.516;2022-10-03T04:41:39;12.40;99.90
7762;DHT22;3925;48.636;9.516;2022-10-03T04:44:16;12.40;99.90
7762;DHT22;3925;48.636;9.516;2022-10-03T04:46:49;12.40;99.90
7762;DHT22;3925;48.636;9.516;2022-10-03T04:49:22;12.30;99.90
7762;DHT22;3925;48.636;9.516;2022-10-03T04:51:56;12.30;99.90
7762;DHT22;3925;48.636;9.516;2022-10-03T04:54:32;12.30;99.90
7762;DHT22;3925;48.636;9.516;2022-10-03T04:57:14;12.20;99.90
7762;DHT22;3925;48.636;9.516;2022-10-03T04:59:51;12.20;99.90
7762;DHT22;3925;48.636;9.516;2022-10-03T05:02:37;12.20;99.90
7762;DHT22;3925;48.636;9.516;2022-10-03T05:05:18;12.30;99.90
7762;DHT22;3925;48.636;9.516;2022-10-03T05:07:52;12.30;99.90
7762;DHT22;3925;48.636;9.516;2022-10-03T05:10:28;12.30;99.90
7762;DHT22;3925;48.636;9.516;2022-10-03T05:13:05;12.20;99.90
7762;DHT22;3925;48.636;9.516;2022-10-03T05:15:45;12.10;99.90
7762;DHT22;3925;48.636;9.516;2022-10-03T05:18:18;12.00;99.90
7762;DHT22;3925;48.636;9.516;2022-10-03T05:20:52;11.90;99.90
7762;DHT22;3925;48.636;9.516;2022-10-03T05:23:31;11.90;99.90
7762;DHT22;3925;48.636;9.516;2022-10-03T05:26:08;12.00;99.90
7762;DHT22;3925;48.636;9.516;2022-10-03T05:28:44;12.00;99.90
7762;DHT22;3925;48.636;9.516;2022-10-03T05:31:28;12.00;99.90
7762;DHT22;3925;48.636;9.516;2022-10-03T05:34:03;12.00;99.90
7762;DHT22;3925;48.636;9.516;2022-10-03T05:36:47;12.00;99.90
7762;DHT22;3925;48.636;9.516;2022-10-03T05:39:27;12.00;99.90
7762;DHT22;3925;48.636;9.516;2022-10-03T05:42:12;12.00;99.90
7762;DHT22;3925;48.636;9.516;2022-10-03T05:44:47;12.00;99.90
7762;DHT22;3925;48.636;9.516;2022-10-03T05:47:25;12.10;99.90
7762;DHT22;3925;48.636;9.516;2022-10-03T05:50:36;12.10;99.90
7762;DHT22;3925;48.636;9.516;2022-10-03T05:53:18;12.20;99.90
7762;DHT22;3925;48.636;9.516;2022-10-03T05:56:01;12.20;99.90
7762;DHT22;3925;48.636;9.516;2022-10-03T05:58:50;12.20;99.90
7762;DHT22;3925;48.636;9.516;2022-10-03T06:01:43;12.20;99.90
7762;DHT22;3925;48.636;9.516;2022-10-03T06:04:33;12.30;99.90
7762;DHT22;3925;48.636;9.516;2022-10-03T06:07:17;12.30;99.90
7762;DHT22;3925;48.636;9.516;2022-10-03T06:10:13;12.30;99.90
7762;DHT22;3925;48.636;9.516;2022-10-03T06:12:48;12.40;99.90
7762;DHT22;3925;48.636;9.516;2022-10-03T06:15:43;12.40;99.90
7762;DHT22;3925;48.636;9.516;2022-10-03T06:18:32;12.40;99.90
7762;DHT22;3925;48.636;9.516;2022-10-03T06:21:27;12.30;99.90
7762;DHT22;3925;48.636;9.516;2022-10-03T06:24:17;12.30;99.90
7762;DHT22;3925;48.636;9.516;2022-10-03T06:30:06;12.20;99.90
7762;DHT22;3925;48.636;9.516;2022-10-03T06:33:29;12.30;99.90
7762;DHT22;3925;48.636;9.516;2022-10-03T06:54:35;12.70;99.90
7762;DHT22;3925;48.636;9.516;2022-10-03T06:57:23;12.80;99.90
7762;DHT22;3925;48.636;9.516;2022-10-03T07:00:08;12.90;99.90
7762;DHT22;3925;48.636;9.516;2022-10-03T07:03:02;12.90;99.90
7762;DHT22;3925;48.636;9.516;2022-10-03T07:09:20;12.60;99.90
7762;DHT22;3925;48.636;9.516;2022-10-03T07:15:17;12.80;99.90
7762;DHT22;3925;48.636;9.516;2022-10-03T07:18:15;12.90;99.90
7762;DHT22;3925;48.636;9.516;2022-10-03T07:21:04;13.00;99.90
7762;DHT22;3925;48.636;9.516;2022-10-03T07:24:01;13.10;99.90
7762;DHT22;3925;48.636;9.516;2022-10-03T07:26:52;13.20;99.90
7762;DHT22;3925;48.636;9.516;2022-10-03T07:29:31;13.20;99.90
7762;DHT22;3925;48.636;9.516;2022-10-03T07:32:46;13.20;99.90
7762;DHT22;3925;48.636;9.516;2022-10-03T07:35:41;13.30;99.90
7762;DHT22;3925;48.636;9.516;2022-10-03T07:38:52;13.30;99.90
7762;DHT22;3925;48.636;9.516;2022-10-03T07:41:46;13.50;99.90
7762;DHT22;3925;48.636;9.516;2022-10-03T07:53:58;14.30;99.90
7762;DHT22;3925;48.636;9.516;2022-10-03T07:57:06;14.30;99.90
7762;DHT22;3925;48.636;9.516;2022-10-03T08:00:14;14.00;99.90
7762;DHT22;3925;48.636;9.516;2022-10-03T08:03:09;14.00;99.90
7762;DHT22;3925;48.636;9.516;2022-10-03T08:06:05;14.00;99.90
7762;DHT22;3925;48.636;9.516;2022-10-03T08:09:03;14.00;99.90
7762;DHT22;3925;48.636;9.516;2022-10-03T08:11:48;14.10;99.90
7762;DHT22;3925;48.636;9.516;2022-10-03T08:14:23;14.40;99.90
7762;DHT22;3925;48.636;9.516;2022-10-03T08:20:04;15.70;99.90
7762;DHT22;3925;48.636;9.516;2022-10-03T08:22:41;16.30;99.90
7762;DHT22;3925;48.636;9.516;2022-10-03T08:25:28;16.60;99.90
7762;DHT22;3925;48.636;9.516;2022-10-03T08:28:17;16.90;99.90
7762;DHT22;3925;48.636;9.516;2022-10-03T08:31:05;17.10;99.90
7762;DHT22;3925;48.636;9.516;2022-10-03T08:33:50;17.30;99.90
7762;DHT22;3925;48.636;9.516;2022-10-03T08:36:48;17.30;99.90
7762;DHT22;3925;48.636;9.516;2022-10-03T08:39:29;17.50;99.90
7762;DHT22;3925;48.636;9.516;2022-10-03T08:45:38;19.60;99.90
7762;DHT22;3925;48.636;9.516;2022-10-03T08:51:55;20.10;99.90
7762;DHT22;3925;48.636;9.516;2022-10-03T08:54:50;21.00;99.90
7762;DHT22;3925;48.636;9.516;2022-10-03T08:57:54;21.60;99.90
7762;DHT22;3925;48.636;9.516;2022-10-03T09:00:28;21.30;99.90
7762;DHT22;3925;48.636;9.516;2022-10-03T09:06:36;20.70;99.90
7762;DHT22;3925;48.636;9.516;2022-10-03T09:12:44;19.60;99.90
7762;DHT22;3925;48.636;9.516;2022-10-03T09:15:41;19.50;99.90
7762;DHT22;3925;48.636;9.516;2022-10-03T09:18:31;18.80;99.90
7762;DHT22;3925;48.636;9.516;2022-10-03T09:27:26;18.00;99.90
7762;DHT22;3925;48.636;9.516;2022-10-03T09:30:22;17.70;99.90
7762;DHT22;3925;48.636;9.516;2022-10-03T09:33:16;17.50;99.90
7762;DHT22;3925;48.636;9.516;2022-10-03T09:35:59;17.40;99.90
7762;DHT22;3925;48.636;9.516;2022-10-03T09:38:52;17.70;99.90
7762;DHT22;3925;48.636;9.516;2022-10-03T09:44:44;19.00;99.90
7762;DHT22;3925;48.636;9.516;2022-10-03T09:50:46;17.90;99.90
7762;DHT22;3925;48.636;9.516;2022-10-03T10:00:16;17.10;99.90
7762;DHT22;3925;48.636;9.516;2022-10-03T10:03:28;16.90;99.90
7762;DHT22;3925;48.636;9.516;2022-10-03T10:09:35;17.10;99.90
7762;DHT22;3925;48.636;9.516;2022-10-03T10:22:00;17.80;99.90
7762;DHT22;3925;48.636;9.516;2022-10-03T10:27:47;19.00;99.90
7762;DHT22;3925;48.636;9.516;2022-10-03T10:30:45;20.00;99.90
7762;DHT22;3925;48.636;9.516;2022-10-03T10:40:15;28.30;91.10
7762;DHT22;3925;48.636;9.516;2022-10-03T10:43:22;28.60;82.90
7762;DHT22;3925;48.636;9.516;2022-10-03T10:46:14;27.30;80.80
7762;DHT22;3925;48.636;9.516;2022-10-03T10:55:38;29.70;72.90
7762;DHT22;3925;48.636;9.516;2022-10-03T11:01:29;31.70;62.50
7762;DHT22;3925;48.636;9.516;2022-10-03T11:04:24;31.70;60.40
7762;DHT22;3925;48.636;9.516;2022-10-03T11:10:31;29.70;59.00
7762;DHT22;3925;48.636;9.516;2022-10-03T11:13:27;28.30;62.90
7762;DHT22;3925;48.636;9.516;2022-10-03T11:23:15;23.70;83.40
7762;DHT22;3925;48.636;9.516;2022-10-03T11:29:25;21.60;91.70
7762;DHT22;3925;48.636;9.516;2022-10-03T11:35:43;20.60;95.30
7762;DHT22;3925;48.636;9.516;2022-10-03T11:38:20;21.10;96.30
7762;DHT22;3925;48.636;9.516;2022-10-03T11:40:57;21.40;96.90
7762;DHT22;3925;48.636;9.516;2022-10-03T11:43:43;21.50;96.20
7762;DHT22;3925;48.636;9.516;2022-10-03T11:46:30;21.30;94.70
7762;DHT22;3925;48.636;9.516;2022-10-03T11:49:05;20.90;96.30
7762;DHT22;3925;48.636;9.516;2022-10-03T11:51:40;20.80;96.60
7762;DHT22;3925;48.636;9.516;2022-10-03T11:54:20;20.60;96.20
7762;DHT22;3925;48.636;9.516;2022-10-03T11:56:53;20.80;97.10
7762;DHT22;3925;48.636;9.516;2022-10-03T11:59:43;20.80;95.10
7762;DHT22;3925;48.636;9.516;2022-10-03T12:02:15;21.10;93.50
7762;DHT22;3925;48.636;9.516;2022-10-03T12:04:51;21.20;94.10
7762;DHT22;3925;48.636;9.516;2022-10-03T12:07:41;20.90;92.10
7762;DHT22;3925;48.636;9.516;2022-10-03T12:10:34;21.50;94.10
7762;DHT22;3925;48.636;9.516;2022-10-03T12:13:07;21.70;92.10
7762;DHT22;3925;48.636;9.516;2022-10-03T12:15:41;21.50;92.90
7762;DHT22;3925;48.636;9.516;2022-10-03T12:18:13;21.00;92.90
7762;DHT22;3925;48.636;9.516;2022-10-03T12:20:59;20.70;96.20
7762;DHT22;3925;48.636;9.516;2022-10-03T12:23:49;20.50;95.60
7762;DHT22;3925;48.636;9.516;2022-10-03T12:26:26;20.10;96.20
7762;DHT22;3925;48.636;9.516;2022-10-03T12:28:59;19.90;96.60
7762;DHT22;3925;48.636;9.516;2022-10-03T12:31:31;19.80;97.00
7762;DHT22;3925;48.636;9.516;2022-10-03T12:34:13;19.40;97.10
7762;DHT22;3925;48.636;9.516;2022-10-03T12:36:49;19.00;97.70
7762;DHT22;3925;48.636;9.516;2022-10-03T12:39:26;18.60;97.60
7762;DHT22;3925;48.636;9.516;2022-10-03T12:42:05;18.20;98.30
7762;DHT22;3925;48.636;9.516;2022-10-03T12:44:46;17.70;99.90
7762;DHT22;3925;48.636;9.516;2022-10-03T12:47:26;17.70;99.90
7762;DHT22;3925;48.636;9.516;2022-10-03T12:50:03;17.80;99.40
7762;DHT22;3925;48.636;9.516;2022-10-03T12:52:34;18.00;99.90
7762;DHT22;3925;48.636;9.516;2022-10-03T12:55:19;18.10;99.90
7762;DHT22;3925;48.636;9.516;2022-10-03T12:57:56;18.50;99.90
7762;DHT22;3925;48.636;9.516;2022-10-03T13:00:28;18.80;99.90
7762;DHT22;3925;48.636;9.516;2022-10-03T13:06:16;19.40;97.30
7762;DHT22;3925;48.636;9.516;2022-10-03T13:08:57;19.30;98.10
7762;DHT22;3925;48.636;9.516;2022-10-03T13:11:34;19.50;98.00
7762;DHT22;3925;48.636;9.516;2022-10-03T13:14:19;19.40;97.00
7762;DHT22;3925;48.636;9.516;2022-10-03T13:16:56;19.50;98.60
7762;DHT22;3925;48.636;9.516;2022-10-03T13:19:27;19.20;97.30
7762;DHT22;3925;48.636;9.516;2022-10-03T13:22:02;19.10;98.70
7762;DHT22;3925;48.636;9.516;2022-10-03T13:24:37;18.80;99.20
7762;DHT22;3925;48.636;9.516;2022-10-03T13:27:25;18.80;99.50
7762;DHT22;3925;48.636;9.516;2022-10-03T13:30:03;18.80;99.10
7762;DHT22;3925;48.636;9.516;2022-10-03T13:32:33;18.60;99.90
7762;DHT22;3925;48.636;9.516;2022-10-03T13:35:18;18.50;99.90
7762;DHT22;3925;48.636;9.516;2022-10-03T13:38:27;18.20;99.90
7762;DHT22;3925;48.636;9.516;2022-10-03T13:41:08;18.10;99.90
7762;DHT22;3925;48.636;9.516;2022-10-03T13:43:40;18.00;99.90
7762;DHT22;3925;48.636;9.516;2022-10-03T13:46:12;17.70;99.90
7762;DHT22;3925;48.636;9.516;2022-10-03T13:48:43;17.60;99.90
7762;DHT22;3925;48.636;9.516;2022-10-03T13:51:20;17.70;99.90
7762;DHT22;3925;48.636;9.516;2022-10-03T13:53:56;17.70;99.90
7762;DHT22;3925;48.636;9.516;2022-10-03T13:59:38;17.70;99.90
7762;DHT22;3925;48.636;9.516;2022-10-03T14:02:37;17.80;99.90
7762;DHT22;3925;48.636;9.516;2022-10-03T14:05:35;17.60;99.90
7762;DHT22;3925;48.636;9.516;2022-10-03T14:08:11;17.70;99.90
7762;DHT22;3925;48.636;9.516;2022-10-03T14:11:06;17.80;99.90
7762;DHT22;3925;48.636;9.516;2022-10-03T14:13:45;17.80;99.90
7762;DHT22;3925;48.636;9.516;2022-10-03T14:16:21;17.80;99.90
7762;DHT22;3925;48.636;9.516;2022-10-03T14:18:56;17.70;99.90
7762;DHT22;3925;48.636;9.516;2022-10-03T14:21:39;17.60;99.90
7762;DHT22;3925;48.636;9.516;2022-10-03T14:24:26;17.50;99.90
7762;DHT22;3925;48.636;9.516;2022-10-03T14:27:07;17.50;99.90
7762;DHT22;3925;48.636;9.516;2022-10-03T14:29:41;17.40;99.90
7762;DHT22;3925;48.636;9.516;2022-10-03T14:32:19;17.30;99.90
7762;DHT22;3925;48.636;9.516;2022-10-03T14:34:55;17.20;99.90
7762;DHT22;3925;48.636;9.516;2022-10-03T14:37:30;17.10;99.90
7762;DHT22;3925;48.636;9.516;2022-10-03T14:40:14;17.10;99.90
7762;DHT22;3925;48.636;9.516;2022-10-03T14:42:57;17.20;99.90
7762;DHT22;3925;48.636;9.516;2022-10-03T14:45:31;17.20;99.90
7762;DHT22;3925;48.636;9.516;2022-10-03T14:48:03;17.30;99.90
7762;DHT22;3925;48.636;9.516;2022-10-03T14:50:33;17.30;99.90
7762;DHT22;3925;48.636;9.516;2022-10-03T14:53:07;17.30;99.90
7762;DHT22;3925;48.636;9.516;2022-10-03T14:55:44;17.40;99.90
7762;DHT22;3925;48.636;9.516;2022-10-03T14:58:16;17.20;99.90
7762;DHT22;3925;48.636;9.516;2022-10-03T15:00:45;17.10;99.90
7762;DHT22;3925;48.636;9.516;2022-10-03T15:03:23;17.10;99.90
7762;DHT22;3925;48.636;9.516;2022-10-03T15:06:19;16.90;99.90
7762;DHT22;3925;48.636;9.516;2022-10-03T15:08:50;16.60;99.90
7762;DHT22;3925;48.636;9.516;2022-10-03T15:11:24;16.80;99.90
7762;DHT22;3925;48.636;9.516;2022-10-03T15:13:54;16.70;99.90
7762;DHT22;3925;48.636;9.516;2022-10-03T15:16:23;16.70;99.90
7762;DHT22;3925;48.636;9.516;2022-10-03T15:18:53;16.80;99.90
7762;DHT22;3925;48.636;9.516;2022-10-03T15:21:22;16.90;99.90
7762;DHT22;3925;48.636;9.516;2022-10-03T15:23:55;16.80;99.90
7762;DHT22;3925;48.636;9.516;2022-10-03T15:26:25;16.80;99.90
7762;DHT22;3925;48.636;9.516;2022-10-03T15:28:56;16.50;99.90
7762;DHT22;3925;48.636;9.516;2022-10-03T15:31:32;16.40;99.90
7762;DHT22;3925;48.636;9.516;2022-10-03T15:34:01;16.30;99.90
7762;DHT22;3925;48.636;9.516;2022-10-03T15:36:32;16.30;99.90
7762;DHT22;3925;48.636;9.516;2022-10-03T15:39:05;16.20;99.90
7762;DHT22;3925;48.636;9.516;2022-10-03T15:41:44;16.10;99.90
7762;DHT22;3925;48.636;9.516;2022-10-03T15:44:17;16.00;99.90
7762;DHT22;3925;48.636;9.516;2022-10-03T15:46:48;16.00;99.90
7762;DHT22;3925;48.636;9.516;2022-10-03T15:49:23;15.90;99.90
7762;DHT22;3925;48.636;9.516;2022-10-03T15:51:53;15.70;99.90
7762;DHT22;3925;48.636;9.516;2022-10-03T15:54:24;15.60;99.90
7762;DHT22;3925;48.636;9.516;2022-10-03T15:56:55;15.70;99.90
7762;DHT22;3925;48.636;9.516;2022-10-03T15:59:27;15.60;99.90
7762;DHT22;3925;48.636;9.516;2022-10-03T16:02:01;15.60;99.90
7762;DHT22;3925;48.636;9.516;2022-10-03T16:04:32;15.60;99.90
7762;DHT22;3925;48.636;9.516;2022-10-03T16:07:04;15.70;99.90
7762;DHT22;3925;48.636;9.516;2022-10-03T16:09:42;15.50;99.90
7762;DHT22;3925;48.636;9.516;2022-10-03T16:12:43;15.50;99.90
7762;DHT22;3925;48.636;9.516;2022-10-03T16:15:18;15.50;99.90
7762;DHT22;3925;48.636;9.516;2022-10-03T16:17:48;15.40;99.90
7762;DHT22;3925;48.636;9.516;2022-10-03T16:20:19;15.30;99.90
7762;DHT22;3925;48.636;9.516;2022-10-03T16:22:50;15.20;99.90
7762;DHT22;3925;48.636;9.516;2022-10-03T16:25:21;15.10;99.90
7762;DHT22;3925;48.636;9.516;2022-10-03T16:27:55;14.90;99.90
7762;DHT22;3925;48.636;9.516;2022-10-03T16:30:27;14.70;99.90
7762;DHT22;3925;48.636;9.516;2022-10-03T16:33:02;14.70;99.90
7762;DHT22;3925;48.636;9.516;2022-10-03T16:35:35;14.50;99.90
7762;DHT22;3925;48.636;9.516;2022-10-03T16:38:07;14.50;99.90
7762;DHT22;3925;48.636;9.516;2022-10-03T16:40:51;14.50;99.90
7762;DHT22;3925;48.636;9.516;2022-10-03T16:43:21;14.40;99.90
7762;DHT22;3925;48.636;9.516;2022-10-03T16:45:49;14.40;99.90
7762;DHT22;3925;48.636;9.516;2022-10-03T16:48:19;14.30;99.90
7762;DHT22;3925;48.636;9.516;2022-10-03T16:51:14;14.30;99.90
7762;DHT22;3925;48.636;9.516;2022-10-03T16:53:42;14.20;99.90
7762;DHT22;3925;48.636;9.516;2022-10-03T16:56:12;14.20;99.90
7762;DHT22;3925;48.636;9.516;2022-10-03T16:58:48;14.10;99.90
7762;DHT22;3925;48.636;9.516;2022-10-03T17:01:25;14.00;99.90
7762;DHT22;3925;48.636;9.516;2022-10-03T17:03:57;13.80;99.90
7762;DHT22;3925;48.636;9.516;2022-10-03T17:06:28;13.80;99.90
7762;DHT22;3925;48.636;9.516;2022-10-03T17:08:59;13.70;99.90
7762;DHT22;3925;48.636;9.516;2022-10-03T17:11:29;13.70;99.90
7762;DHT22;3925;48.636;9.516;2022-10-03T17:14:03;13.60;99.90
7762;DHT22;3925;48.636;9.516;2022-10-03T17:16:35;13.50;99.90
7762;DHT22;3925;48.636;9.516;2022-10-03T17:19:19;13.30;99.90
7762;DHT22;3925;48.636;9.516;2022-10-03T17:21:50;13.20;99.90
7762;DHT22;3925;48.636;9.516;2022-10-03T17:24:34;13.20;99.90
7762;DHT22;3925;48.636;9.516;2022-10-03T17:27:09;13.10;99.90
7762;DHT22;3925;48.636;9.516;2022-10-03T17:29:45;13.10;99.90
7762;DHT22;3925;48.636;9.516;2022-10-03T17:32:19;12.90;99.90
7762;DHT22;3925;48.636;9.516;2022-10-03T17:34:52;12.80;99.90
7762;DHT22;3925;48.636;9.516;2022-10-03T17:37:55;12.60;99.90
7762;DHT22;3925;48.636;9.516;2022-10-03T17:40:37;12.50;99.90
7762;DHT22;3925;48.636;9.516;2022-10-03T17:43:17;12.30;99.90
7762;DHT22;3925;48.636;9.516;2022-10-03T17:45:54;12.20;99.90
7762;DHT22;3925;48.636;9.516;2022-10-03T17:48:29;12.20;99.90
7762;DHT22;3925;48.636;9.516;2022-10-03T17:51:10;12.20;99.90
7762;DHT22;3925;48.636;9.516;2022-10-03T17:53:44;12.30;99.90
7762;DHT22;3925;48.636;9.516;2022-10-03T17:56:16;12.30;99.90
7762;DHT22;3925;48.636;9.516;2022-10-03T17:58:49;12.20;99.90
7762;DHT22;3925;48.636;9.516;2022-10-03T18:01:21;12.10;99.90
7762;DHT22;3925;48.636;9.516;2022-10-03T18:03:54;12.10;99.90
7762;DHT22;3925;48.636;9.516;2022-10-03T18:06:41;12.10;99.90
7762;DHT22;3925;48.636;9.516;2022-10-03T18:09:23;12.10;99.90
7762;DHT22;3925;48.636;9.516;2022-10-03T18:11:53;12.10;99.90
7762;DHT22;3925;48.636;9.516;2022-10-03T18:14:31;12.10;99.90
7762;DHT22;3925;48.636;9.516;2022-10-03T18:17:05;12.10;99.90
7762;DHT22;3925;48.636;9.516;2022-10-03T18:19:48;12.00;99.90
7762;DHT22;3925;48.636;9.516;2022-10-03T18:22:20;12.00;99.90
7762;DHT22;3925;48.636;9.516;2022-10-03T18:24:55;12.00;99.90
7762;DHT22;3925;48.636;9.516;2022-10-03T18:27:43;12.00;99.90
7762;DHT22;3925;48.636;9.516;2022-10-03T18:30:18;12.00;99.90
7762;DHT22;3925;48.636;9.516;2022-10-03T18:32:48;12.00;99.90
7762;DHT22;3925;48.636;9.516;2022-10-03T18:35:19;11.90;99.90
7762;DHT22;3925;48.636;9.516;2022-10-03T18:37:58;11.60;99.90
7762;DHT22;3925;48.636;9.516;2022-10-03T18:40:28;11.40;99.90
7762;DHT22;3925;48.636;9.516;2022-10-03T18:42:57;11.50;99.90
7762;DHT22;3925;48.636;9.516;2022-10-03T18:45:28;11.50;99.90
7762;DHT22;3925;48.636;9.516;2022-10-03T18:48:03;11.40;99.90
7762;DHT22;3925;48.636;9.516;2022-10-03T18:50:43;11.40;99.90
7762;DHT22;3925;48.636;9.516;2022-10-03T18:53:19;11.30;99.90
7762;DHT22;3925;48.636;9.516;2022-10-03T18:55:53;11.30;99.90
7762;DHT22;3925;48.636;9.516;2022-10-03T18:58:24;11.20;99.90
7762;DHT22;3925;48.636;9.516;2022-10-03T19:00:57;11.20;99.90
7762;DHT22;3925;48.636;9.516;2022-10-03T19:03:32;11.20;99.90
7762;DHT22;3925;48.636;9.516;2022-10-03T19:06:03;11.30;99.90
7762;DHT22;3925;48.636;9.516;2022-10-03T19:08:35;11.10;99.90
7762;DHT22;3925;48.636;9.516;2022-10-03T19:11:10;11.20;99.90
7762;DHT22;3925;48.636;9.516;2022-10-03T19:13:42;11.10;99.90
7762;DHT22;3925;48.636;9.516;2022-10-03T19:16:38;11.10;99.90
7762;DHT22;3925;48.636;9.516;2022-10-03T19:19:13;11.10;99.90
7762;DHT22;3925;48.636;9.516;2022-10-03T19:21:41;11.10;99.90
7762;DHT22;3925;48.636;9.516;2022-10-03T19:24:12;11.20;99.90
7762;DHT22;3925;48.636;9.516;2022-10-03T19:26:44;11.00;99.90
7762;DHT22;3925;48.636;9.516;2022-10-03T19:29:14;10.90;99.90
7762;DHT22;3925;48.636;9.516;2022-10-03T19:31:51;10.90;99.90
7762;DHT22;3925;48.636;9.516;2022-10-03T19:34:27;10.80;99.90
7762;DHT22;3925;48.636;9.516;2022-10-03T19:36:59;10.70;99.90
7762;DHT22;3925;48.636;9.516;2022-10-03T19:39:28;10.70;99.90
7762;DHT22;3925;48.636;9.516;2022-10-03T19:42:13;10.60;99.90
7762;DHT22;3925;48.636;9.516;2022-10-03T19:44:43;10.70;99.90
7762;DHT22;3925;48.636;9.516;2022-10-03T19:47:15;10.60;99.90
7762;DHT22;3925;48.636;9.516;2022-10-03T19:49:49;10.80;99.90
7762;DHT22;3925;48.636;9.516;2022-10-03T19:52:24;10.60;99.90
7762;DHT22;3925;48.636;9.516;2022-10-03T19:54:58;10.50;99.90
7762;DHT22;3925;48.636;9.516;2022-10-03T19:57:32;10.60;99.90
7762;DHT22;3925;48.636;9.516;2022-10-03T20:00:06;10.80;99.90
7762;DHT22;3925;48.636;9.516;2022-10-03T20:02:50;10.60;99.90
7762;DHT22;3925;48.636;9.516;2022-10-03T20:05:23;10.30;99.90
7762;DHT22;3925;48.636;9.516;2022-10-03T20:07:57;10.50;99.90
7762;DHT22;3925;48.636;9.516;2022-10-03T20:10:48;10.60;99.90